createdAt,value
2019-02-10T00:00:41.238Z,4.00
2019-02-10T00:05:38.176Z,3.91
2019-02-10T00:10:35.085Z,3.97
2019-02-10T00:15:32.048Z,3.96
2019-02-10T00:20:28.955Z,3.87
2019-02-10T00:25:26.381Z,3.83
2019-02-10T00:30:23.379Z,3.73
2019-02-10T00:35:20.342Z,3.63
2019-02-10T00:40:17.253Z,3.69
2019-02-10T00:45:14.233Z,3.79
2019-02-10T00:50:11.285Z,3.76
2019-02-10T00:55:08.244Z,3.75
2019-02-10T01:00:07.538Z,3.73
2019-02-10T01:05:07.466Z,3.82
2019-02-10T01:10:07.018Z,3.79
2019-02-10T01:15:05.361Z,3.72
2019-02-10T01:20:03.868Z,3.56
2019-02-10T01:25:00.803Z,3.43
2019-02-10T01:29:57.723Z,3.15
2019-02-10T01:34:54.682Z,3.53
2019-02-10T01:39:51.585Z,3.31
2019-02-10T01:44:48.534Z,3.48
2019-02-10T01:49:46.314Z,3.59
2019-02-10T01:54:43.278Z,3.82
2019-02-10T01:59:40.190Z,3.74
2019-02-10T02:04:37.125Z,3.81
2019-02-10T02:09:34.041Z,3.75
2019-02-10T02:14:30.986Z,3.93
2019-02-10T02:19:27.910Z,3.89
2019-02-10T02:24:24.863Z,3.81
2019-02-10T02:29:21.766Z,3.84
2019-02-10T02:34:18.727Z,3.97
2019-02-10T02:39:15.649Z,3.91
2019-02-10T02:44:12.579Z,4.01
2019-02-10T02:49:09.554Z,3.88
2019-02-10T02:54:06.571Z,4.01
2019-02-10T02:59:03.470Z,3.83
2019-02-10T03:04:00.424Z,3.86
2019-02-10T03:08:57.521Z,3.74
2019-02-10T03:13:54.489Z,3.46
2019-02-10T03:18:53.265Z,3.33
2019-02-10T03:23:50.240Z,3.37
2019-02-10T03:28:47.163Z,3.33
2019-02-10T03:33:44.106Z,3.41
2019-02-10T03:38:41.042Z,3.43
2019-02-10T03:43:37.977Z,3.51
2019-02-10T03:48:34.909Z,3.44
2019-02-10T03:53:32.163Z,3.16
2019-02-10T03:58:30.210Z,3.17
2019-02-10T04:03:27.273Z,3.09
2019-02-10T04:08:24.199Z,3.16
2019-02-10T04:13:21.144Z,2.90
2019-02-10T04:18:18.263Z,2.98
2019-02-10T04:23:15.211Z,2.92
2019-02-10T04:28:12.114Z,3.09
2019-02-10T04:33:09.086Z,3.10
2019-02-10T04:38:06.203Z,3.01
2019-02-10T04:43:03.135Z,3.19
2019-02-10T04:48:00.058Z,3.13
2019-02-10T04:52:56.994Z,3.13
2019-02-10T04:57:53.910Z,3.14
2019-02-10T05:02:51.794Z,2.98
2019-02-10T05:07:54.330Z,2.83
2019-02-10T05:12:47.575Z,2.88
2019-02-10T05:17:44.476Z,2.97
2019-02-10T05:22:41.421Z,2.70
2019-02-10T05:27:38.371Z,2.88
2019-02-10T05:32:35.324Z,2.90
2019-02-10T05:37:32.323Z,2.69
2019-02-10T05:42:29.261Z,2.57
2019-02-10T05:47:26.186Z,2.67
2019-02-10T05:52:23.145Z,2.67
2019-02-10T05:57:20.036Z,2.64
2019-02-10T06:02:18.786Z,2.79
2019-02-10T06:07:16.739Z,2.94
2019-02-10T06:12:13.866Z,2.88
2019-02-10T06:17:10.785Z,3.07
2019-02-10T06:22:08.131Z,3.16
2019-02-10T06:27:05.025Z,3.41
2019-02-10T06:32:02.008Z,3.32
2019-02-10T06:36:58.911Z,3.33
2019-02-10T06:41:55.871Z,3.37
2019-02-10T06:46:52.769Z,3.65
2019-02-10T06:51:49.720Z,3.76
2019-02-10T06:56:46.670Z,4.11
2019-02-10T07:01:45.408Z,4.45
2019-02-10T07:06:42.368Z,4.83
2019-02-10T07:11:39.660Z,5.26
2019-02-10T07:16:45.037Z,5.45
2019-02-10T07:21:42.257Z,5.33
2019-02-10T07:26:58.190Z,5.98
2019-02-10T07:31:55.117Z,6.00
2019-02-10T07:37:00.177Z,6.88
2019-02-10T07:42:28.129Z,6.83
2019-02-10T07:47:36.239Z,6.65
2019-02-10T07:52:53.910Z,6.71
2019-02-10T07:58:29.993Z,6.68
2019-02-10T08:03:47.441Z,6.51
2019-02-10T08:09:12.709Z,6.64
2019-02-10T08:14:36.168Z,6.78
2019-02-10T08:19:55.395Z,6.29
2019-02-10T08:25:00.630Z,6.03
2019-02-10T08:30:14.883Z,6.34
2019-02-10T08:35:32.356Z,6.30
2019-02-10T08:40:46.265Z,6.70
2019-02-10T08:45:57.634Z,7.33
2019-02-10T08:51:27.831Z,8.09
2019-02-10T08:56:24.758Z,8.07
2019-02-10T09:01:21.709Z,8.19
2019-02-10T09:06:18.625Z,8.92
2019-02-10T09:11:15.588Z,8.90
2019-02-10T09:16:12.549Z,9.09
2019-02-10T09:21:09.495Z,9.75
2019-02-10T09:26:06.392Z,9.88
2019-02-10T09:31:03.341Z,10.11
2019-02-10T09:36:00.257Z,9.61
2019-02-10T09:40:57.230Z,10.52
2019-02-10T09:45:54.152Z,10.63
2019-02-10T09:50:51.178Z,10.57
2019-02-10T09:55:48.078Z,11.01
2019-02-10T10:00:45.026Z,11.14
2019-02-10T10:05:41.956Z,11.14
2019-02-10T10:10:38.958Z,11.88
2019-02-10T10:15:35.896Z,12.60
2019-02-10T10:20:32.887Z,12.43
2019-02-10T10:25:29.828Z,11.35
2019-02-10T10:30:28.588Z,12.53
2019-02-10T10:35:25.485Z,12.29
2019-02-10T10:40:22.467Z,12.98
2019-02-10T10:45:19.382Z,11.17
2019-02-10T10:50:16.495Z,10.97
2019-02-10T10:55:13.437Z,11.09
2019-02-10T11:00:15.094Z,11.81
2019-02-10T11:05:12.381Z,12.17
2019-02-10T11:10:11.362Z,12.49
2019-02-10T11:15:14.177Z,13.03
2019-02-10T11:20:11.620Z,13.19
2019-02-10T11:25:10.152Z,13.40
2019-02-10T11:30:13.578Z,13.73
2019-02-10T11:35:10.750Z,12.50
2019-02-10T11:40:12.089Z,11.71
2019-02-10T11:45:13.825Z,11.98
2019-02-10T11:50:12.473Z,11.72
2019-02-10T11:55:10.003Z,11.03
2019-02-10T12:00:17.115Z,10.75
2019-02-10T12:05:14.208Z,10.37
2019-02-10T12:10:12.525Z,10.35
2019-02-10T12:15:14.108Z,10.72
2019-02-10T12:20:12.945Z,10.19
2019-02-10T12:25:10.162Z,10.45
2019-02-10T12:30:14.906Z,9.66
2019-02-10T12:35:12.027Z,10.21
2019-02-10T12:40:10.767Z,10.21
2019-02-10T12:45:13.290Z,10.17
2019-02-10T12:50:12.895Z,10.23
2019-02-10T12:55:11.575Z,10.14
2019-02-10T13:00:18.399Z,10.18
2019-02-10T13:05:15.560Z,10.18
2019-02-10T13:10:17.814Z,10.35
2019-02-10T13:15:14.297Z,9.99
2019-02-10T13:20:12.214Z,9.93
2019-02-10T13:25:10.763Z,10.13
2019-02-10T13:30:16.889Z,9.78
2019-02-10T13:35:13.859Z,9.58
2019-02-10T13:40:21.915Z,9.89
2019-02-10T13:45:18.988Z,9.31
2019-02-10T13:50:17.819Z,9.00
2019-02-10T13:55:16.154Z,9.08
2019-02-10T14:00:20.588Z,9.05
2019-02-10T14:05:17.511Z,8.92
2019-02-10T14:10:25.326Z,8.77
2019-02-10T14:15:18.761Z,8.80
2019-02-10T14:20:18.650Z,8.42
2019-02-10T14:25:15.665Z,8.26
2019-02-10T14:30:18.120Z,7.91
2019-02-10T14:35:15.146Z,7.18
2019-02-10T14:40:12.580Z,6.53
2019-02-10T14:45:14.171Z,6.31
2019-02-10T14:50:18.441Z,6.34
2019-02-10T14:55:15.412Z,6.71
2019-02-10T15:00:15.878Z,6.89
2019-02-10T15:05:13.102Z,6.80
2019-02-10T15:10:17.134Z,6.77
2019-02-10T15:15:14.182Z,6.58
2019-02-10T15:20:12.231Z,6.65
2019-02-10T15:25:11.852Z,6.57
2019-02-10T15:30:15.872Z,6.66
2019-02-10T15:35:12.840Z,6.51
2019-02-10T15:40:13.212Z,6.37
2019-02-10T15:45:12.669Z,6.35
2019-02-10T15:50:13.389Z,6.33
2019-02-10T15:55:11.634Z,6.38
2019-02-10T16:00:28.788Z,6.37
2019-02-10T16:05:26.712Z,6.38
2019-02-10T16:10:24.233Z,6.30
2019-02-10T16:15:21.278Z,6.22
2019-02-10T16:20:18.275Z,6.30
2019-02-10T16:25:15.265Z,6.31
2019-02-10T16:30:15.089Z,6.45
2019-02-10T16:35:12.099Z,6.56
2019-02-10T16:40:20.317Z,6.63
2019-02-10T16:45:17.380Z,6.68
2019-02-10T16:50:16.282Z,6.73
2019-02-10T16:55:19.396Z,6.94
2019-02-10T17:00:16.935Z,6.95
2019-02-10T17:05:13.888Z,7.01
2019-02-10T17:10:16.206Z,6.97
2019-02-10T17:15:13.188Z,6.97
2019-02-10T17:20:14.742Z,6.85
2019-02-10T17:25:28.820Z,6.85
2019-02-10T17:30:26.312Z,7.07
2019-02-10T17:35:23.255Z,7.23
2019-02-10T17:40:31.579Z,7.19
2019-02-10T17:45:28.491Z,7.27
2019-02-10T17:50:25.453Z,7.32
2019-02-10T17:55:22.521Z,7.51
2019-02-10T18:00:22.080Z,7.46
2019-02-10T18:05:19.477Z,7.33
2019-02-10T18:10:16.569Z,7.27
2019-02-10T18:15:13.452Z,7.43
2019-02-10T18:20:15.234Z,7.31
2019-02-10T18:25:20.211Z,7.37
2019-02-10T18:30:22.036Z,7.25
2019-02-10T18:35:21.469Z,7.28
2019-02-10T18:40:30.564Z,7.00
2019-02-10T18:45:32.368Z,6.99
2019-02-10T18:50:43.657Z,7.12
2019-02-10T18:55:44.909Z,6.92
2019-02-10T19:01:00.404Z,6.75
2019-02-10T19:06:16.043Z,6.76
2019-02-10T19:11:31.709Z,6.70
2019-02-10T19:16:28.568Z,6.71
2019-02-10T19:21:43.875Z,6.56
2019-02-10T19:26:43.702Z,6.74
2019-02-10T19:31:59.079Z,6.64
2019-02-10T19:36:58.306Z,6.68
2019-02-10T19:41:55.860Z,6.38
2019-02-10T19:47:00.594Z,6.18
2019-02-10T19:52:16.213Z,6.39
2019-02-10T19:57:27.322Z,6.36
2019-02-10T20:02:28.683Z,6.34
2019-02-10T20:07:28.014Z,6.37
2019-02-10T20:12:26.822Z,6.47
2019-02-10T20:17:25.737Z,6.44
2019-02-10T20:22:33.294Z,6.27
2019-02-10T20:27:37.961Z,6.30
2019-02-10T20:32:36.685Z,6.46
2019-02-10T20:43:01.584Z,6.55
2019-02-10T20:48:09.435Z,6.53
2019-02-10T20:53:24.840Z,6.67
2019-02-10T20:58:40.720Z,6.76
2019-02-10T21:03:55.978Z,6.69
2019-02-10T21:09:00.556Z,6.51
2019-02-10T21:14:11.499Z,6.73
2019-02-10T21:19:19.335Z,6.57
2019-02-10T21:24:36.553Z,6.70
2019-02-10T21:29:39.301Z,6.79
2019-02-10T21:34:38.032Z,6.78
2019-02-10T21:39:42.902Z,6.68
2019-02-10T21:44:41.629Z,6.32
2019-02-10T21:49:38.620Z,6.52
2019-02-10T21:54:35.805Z,6.55
2019-02-10T21:59:32.812Z,6.54
2019-02-10T22:04:29.751Z,6.67
2019-02-10T22:09:26.691Z,6.54
2019-02-10T22:14:23.605Z,6.62
2019-02-10T22:19:20.610Z,6.60
2019-02-10T22:24:17.504Z,6.54
2019-02-10T22:29:14.463Z,6.78
2019-02-10T22:34:11.384Z,6.42
2019-02-10T22:39:08.330Z,6.36
2019-02-10T22:44:05.648Z,6.31
2019-02-10T22:49:02.607Z,6.09
2019-02-10T22:53:59.524Z,5.92
2019-02-10T22:58:56.471Z,5.49
2019-02-10T23:03:53.471Z,5.79
2019-02-10T23:08:50.852Z,5.72
2019-02-10T23:13:47.778Z,5.30
2019-02-10T23:18:44.725Z,5.64
2019-02-10T23:23:41.669Z,5.61
2019-02-10T23:28:39.029Z,5.60
2019-02-10T23:33:35.959Z,5.28
2019-02-10T23:38:32.918Z,5.42
2019-02-10T23:43:29.832Z,5.54
2019-02-10T23:48:26.845Z,5.46
2019-02-10T23:53:23.741Z,5.48
2019-02-10T23:58:20.842Z,5.39
